createdAt,value
2023-03-08T00:01:46.193Z,9.63
2023-03-08T00:04:15.763Z,9.05
2023-03-08T00:06:45.271Z,9.82
2023-03-08T00:09:14.659Z,9.10
2023-03-08T00:11:45.406Z,10.57
2023-03-08T00:14:14.836Z,11.02
2023-03-08T00:16:44.237Z,9.07
2023-03-08T00:19:13.637Z,9.43
2023-03-08T00:21:43.181Z,8.43
2023-03-08T00:24:16.706Z,9.50
2023-03-08T00:26:47.646Z,8.95
2023-03-08T00:29:17.099Z,8.60
2023-03-08T00:31:46.634Z,8.70
2023-03-08T00:34:16.418Z,8.73
2023-03-08T00:36:45.900Z,8.60
2023-03-08T00:39:16.479Z,9.48
2023-03-08T00:41:47.416Z,8.50
2023-03-08T00:44:16.782Z,8.50
2023-03-08T00:46:46.194Z,8.32
2023-03-08T00:49:16.598Z,7.28
2023-03-08T00:51:46.031Z,9.68
2023-03-08T00:54:15.374Z,8.13
2023-03-08T00:56:46.451Z,9.15
2023-03-08T00:59:15.864Z,8.40
2023-03-08T01:01:45.349Z,8.95
2023-03-08T01:04:15.760Z,7.90
2023-03-08T01:06:45.224Z,8.38
2023-03-08T01:09:14.618Z,9.90
2023-03-08T01:11:44.325Z,8.32
2023-03-08T01:14:17.324Z,9.02
2023-03-08T01:16:46.717Z,9.32
2023-03-08T01:19:16.127Z,8.50
2023-03-08T01:21:45.570Z,8.65
2023-03-08T01:24:15.023Z,8.98
2023-03-08T01:26:44.407Z,7.85
2023-03-08T01:29:13.769Z,8.20
2023-03-08T01:31:44.537Z,9.00
2023-03-08T01:34:13.948Z,8.65
2023-03-08T01:36:43.345Z,10.50
2023-03-08T01:39:13.460Z,7.28
2023-03-08T01:41:42.846Z,7.72
2023-03-08T01:44:18.408Z,10.27
2023-03-08T01:46:50.944Z,8.07
2023-03-08T01:49:41.081Z,8.13
2023-03-08T01:52:14.830Z,7.90
2023-03-08T01:54:48.918Z,8.38
2023-03-08T01:57:23.661Z,8.73
2023-03-08T02:00:00.031Z,9.13
2023-03-08T02:02:39.254Z,8.50
2023-03-08T02:05:11.693Z,8.18
2023-03-08T02:07:42.716Z,7.93
2023-03-08T02:10:14.457Z,9.98
2023-03-08T02:12:44.487Z,8.75
2023-03-08T02:15:23.500Z,9.52
2023-03-08T02:20:32.922Z,7.72
2023-03-08T02:23:16.592Z,8.75
2023-03-08T02:25:55.055Z,9.38
2023-03-08T02:28:28.437Z,9.00
2023-03-08T02:33:27.818Z,8.10
2023-03-08T02:35:59.413Z,8.40
2023-03-08T02:38:31.502Z,9.27
2023-03-08T02:41:02.383Z,7.55
2023-03-08T02:43:31.854Z,8.85
2023-03-08T02:46:02.179Z,10.23
2023-03-08T02:48:34.304Z,9.00
2023-03-08T02:51:03.771Z,9.07
2023-03-08T02:53:34.530Z,9.50
2023-03-08T02:56:04.044Z,8.57
2023-03-08T02:58:33.502Z,10.40
2023-03-08T03:01:02.926Z,8.98
2023-03-08T03:03:32.432Z,9.48
2023-03-08T03:06:01.919Z,8.85
2023-03-08T03:08:36.243Z,10.63
2023-03-08T03:11:14.194Z,8.18
2023-03-08T03:13:43.849Z,8.35
2023-03-08T03:16:17.734Z,9.45
2023-03-08T03:18:47.323Z,9.07
2023-03-08T03:21:18.362Z,9.75
2023-03-08T03:23:49.773Z,9.90
2023-03-08T03:26:25.176Z,8.65
2023-03-08T03:28:58.608Z,12.05
2023-03-08T03:31:31.543Z,9.68
2023-03-08T03:34:02.662Z,8.70
2023-03-08T03:36:32.128Z,9.97
2023-03-08T03:39:04.360Z,10.10
2023-03-08T03:41:36.464Z,10.30
2023-03-08T03:44:11.501Z,9.82
2023-03-08T03:46:42.122Z,10.65
2023-03-08T03:49:14.006Z,10.65
2023-03-08T03:51:46.080Z,11.32
2023-03-08T03:54:26.088Z,10.27
2023-03-08T03:57:00.406Z,10.43
2023-03-08T03:59:34.036Z,10.55
2023-03-08T04:02:04.591Z,10.88
2023-03-08T04:04:51.472Z,8.90
2023-03-08T04:07:24.653Z,12.20
2023-03-08T04:10:01.443Z,10.07
2023-03-08T04:12:33.059Z,10.82
2023-03-08T04:15:02.522Z,10.57
2023-03-08T04:17:34.721Z,10.20
2023-03-08T04:20:06.612Z,10.75
2023-03-08T04:22:40.236Z,12.25
2023-03-08T04:25:19.326Z,12.07
2023-03-08T04:27:55.776Z,11.68
2023-03-08T04:30:25.274Z,10.55
2023-03-08T04:32:56.236Z,12.05
2023-03-08T04:35:30.569Z,11.30
2023-03-08T04:38:00.132Z,10.55
2023-03-08T04:40:31.976Z,10.20
2023-03-08T04:43:05.580Z,9.50
2023-03-08T04:45:40.395Z,11.35
2023-03-08T04:48:14.412Z,12.80
2023-03-08T04:50:43.877Z,10.38
2023-03-08T04:53:14.145Z,11.95
2023-03-08T04:55:45.534Z,10.48
2023-03-08T04:58:15.501Z,10.65
2023-03-08T05:00:45.220Z,10.43
2023-03-08T05:03:16.010Z,10.50
2023-03-08T05:05:51.170Z,11.15
2023-03-08T05:08:23.266Z,9.75
2023-03-08T05:11:01.007Z,10.77
2023-03-08T05:13:36.876Z,10.90
2023-03-08T05:16:08.995Z,11.82
2023-03-08T05:18:38.649Z,10.77
2023-03-08T05:21:13.883Z,10.82
2023-03-08T05:23:45.264Z,11.55
2023-03-08T05:26:19.340Z,11.07
2023-03-08T05:28:49.677Z,10.55
2023-03-08T05:31:23.730Z,10.93
2023-03-08T05:33:55.323Z,11.27
2023-03-08T05:36:32.760Z,10.35
2023-03-08T05:39:03.245Z,11.55
2023-03-08T05:41:46.727Z,11.82
2023-03-08T05:44:21.519Z,10.32
2023-03-08T05:46:51.696Z,11.05
2023-03-08T05:49:22.036Z,12.00
2023-03-08T05:51:51.586Z,12.57
2023-03-08T05:54:22.855Z,11.70
2023-03-08T05:56:55.937Z,11.40
2023-03-08T05:59:28.651Z,9.77
2023-03-08T06:02:02.248Z,9.50
2023-03-08T06:04:45.372Z,10.68
2023-03-08T06:07:17.249Z,11.05
2023-03-08T06:09:52.113Z,11.52
2023-03-08T06:12:23.386Z,11.65
2023-03-08T06:14:56.328Z,10.93
2023-03-08T06:17:30.001Z,12.32
2023-03-08T06:20:00.634Z,11.25
2023-03-08T06:22:30.318Z,15.13
2023-03-08T06:24:59.844Z,13.57
2023-03-08T06:27:36.483Z,11.73
2023-03-08T06:30:13.591Z,13.38
2023-03-08T06:32:43.810Z,13.10
2023-03-08T06:35:13.854Z,12.80
2023-03-08T06:37:50.264Z,12.23
2023-03-08T06:40:20.811Z,11.88
2023-03-08T06:42:51.776Z,12.13
2023-03-08T06:45:21.187Z,12.80
2023-03-08T06:47:50.617Z,12.60
2023-03-08T06:50:20.480Z,12.10
2023-03-08T06:52:52.007Z,14.13
2023-03-08T06:55:29.503Z,13.85
2023-03-08T06:58:00.323Z,12.77
2023-03-08T07:00:29.990Z,12.88
2023-03-08T07:02:59.550Z,12.43
2023-03-08T07:05:29.182Z,12.95
2023-03-08T07:07:58.694Z,13.95
2023-03-08T07:10:28.440Z,13.43
2023-03-08T07:12:59.232Z,13.25
2023-03-08T07:15:29.057Z,12.88
2023-03-08T07:17:59.735Z,13.00
2023-03-08T07:20:29.652Z,13.82
2023-03-08T07:23:01.691Z,12.43
2023-03-08T07:25:31.797Z,12.60
2023-03-08T07:28:02.686Z,14.27
2023-03-08T07:30:32.160Z,13.23
2023-03-08T07:33:01.900Z,14.45
2023-03-08T07:35:31.615Z,12.95
2023-03-08T07:38:01.085Z,14.15
2023-03-08T07:40:30.577Z,13.73
2023-03-08T07:43:00.631Z,12.85
2023-03-08T07:45:51.721Z,13.60
2023-03-08T07:48:21.044Z,15.25
2023-03-08T07:50:50.410Z,14.05
2023-03-08T07:53:19.805Z,12.48
2023-03-08T07:55:49.174Z,12.90
2023-03-08T07:58:18.565Z,12.15
2023-03-08T08:00:47.946Z,14.45
2023-03-08T08:03:18.837Z,14.38
2023-03-08T08:05:48.561Z,13.10
2023-03-08T08:08:18.143Z,14.63
2023-03-08T08:10:47.541Z,14.52
2023-03-08T08:13:16.925Z,14.25
2023-03-08T08:15:46.517Z,13.23
2023-03-08T08:18:15.982Z,14.30
2023-03-08T08:20:46.829Z,13.40
2023-03-08T08:23:16.199Z,14.07
2023-03-08T08:25:46.658Z,13.85
2023-03-08T08:28:15.996Z,12.75
2023-03-08T08:30:45.878Z,13.73
2023-03-08T08:33:15.449Z,14.60
2023-03-08T08:35:46.284Z,13.38
2023-03-08T08:38:15.732Z,12.23
2023-03-08T08:40:45.055Z,12.27
2023-03-08T08:43:14.710Z,13.93
2023-03-08T08:45:45.697Z,12.30
2023-03-08T08:48:15.924Z,13.20
2023-03-08T08:50:46.659Z,13.15
2023-03-08T08:53:16.462Z,12.38
2023-03-08T08:55:45.987Z,11.63
2023-03-08T08:58:15.895Z,11.20
2023-03-08T09:00:46.607Z,12.10
2023-03-08T09:03:15.954Z,11.60
2023-03-08T09:05:46.903Z,11.52
2023-03-08T09:08:16.805Z,12.15
2023-03-08T09:10:46.170Z,11.93
2023-03-08T09:13:15.729Z,11.77
2023-03-08T09:15:45.087Z,11.82
2023-03-08T09:18:14.432Z,10.95
2023-03-08T09:20:43.843Z,13.23
2023-03-08T09:23:14.629Z,11.00
2023-03-08T09:25:44.004Z,10.18
2023-03-08T09:28:13.698Z,10.93
2023-03-08T09:30:43.611Z,13.80
2023-03-08T09:33:13.103Z,10.52
2023-03-08T09:35:42.552Z,12.90
2023-03-08T09:38:11.945Z,11.80
2023-03-08T09:41:00.356Z,11.32
2023-03-08T09:43:45.140Z,10.82
2023-03-08T09:46:18.422Z,12.32
2023-03-08T09:51:22.172Z,9.57
2023-03-08T09:53:57.139Z,12.82
2023-03-08T09:56:36.854Z,10.65
2023-03-08T09:59:14.969Z,12.88
2023-03-08T10:02:03.960Z,11.88
2023-03-08T10:05:09.934Z,12.60
2023-03-08T10:07:54.554Z,10.55
2023-03-08T10:10:50.240Z,13.02
2023-03-08T10:13:34.960Z,11.98
2023-03-08T10:16:22.503Z,13.15
2023-03-08T10:18:57.810Z,11.85
2023-03-08T10:21:29.343Z,12.23
2023-03-08T10:24:08.299Z,11.48
2023-03-08T10:26:37.825Z,12.45
2023-03-08T10:29:09.791Z,12.63
2023-03-08T10:31:39.435Z,12.50
2023-03-08T10:34:16.266Z,14.32
2023-03-08T10:36:53.662Z,13.10
2023-03-08T10:39:23.339Z,13.07
2023-03-08T10:41:57.238Z,12.13
2023-03-08T10:44:42.651Z,13.05
2023-03-08T10:47:23.668Z,13.57
2023-03-08T10:50:14.565Z,14.07
2023-03-08T10:52:46.693Z,11.38
2023-03-08T10:55:21.891Z,9.20
2023-03-08T10:57:56.285Z,7.72
2023-03-08T11:00:34.912Z,7.40
2023-03-08T11:03:18.158Z,6.90
2023-03-08T11:05:59.312Z,7.47
2023-03-08T11:08:34.832Z,8.25
2023-03-08T11:11:11.738Z,7.50
2023-03-08T11:13:46.449Z,8.00
2023-03-08T11:17:01.501Z,8.43
2023-03-08T11:20:11.031Z,9.23
2023-03-08T11:22:58.408Z,8.40
2023-03-08T11:25:42.793Z,8.30
2023-03-08T11:28:53.111Z,9.52
2023-03-08T11:31:33.178Z,7.13
2023-03-08T11:34:53.632Z,7.35
2023-03-08T11:37:34.741Z,7.88
2023-03-08T11:40:22.361Z,7.85
2023-03-08T11:43:12.394Z,7.00
2023-03-08T11:45:53.003Z,6.38
2023-03-08T11:48:58.799Z,6.15
2023-03-08T11:51:38.100Z,7.18
2023-03-08T11:54:20.575Z,6.97
2023-03-08T11:56:55.824Z,7.68
2023-03-08T11:59:34.542Z,6.65
2023-03-08T12:02:19.057Z,5.72
2023-03-08T12:05:02.611Z,7.03
2023-03-08T12:10:20.175Z,6.20
2023-03-08T12:12:57.112Z,7.18
2023-03-08T12:15:36.697Z,6.38
2023-03-08T12:18:15.961Z,6.18
2023-03-08T12:20:46.338Z,6.97
2023-03-08T12:23:27.406Z,7.03
2023-03-08T12:26:07.500Z,7.05
2023-03-08T12:28:42.757Z,7.00
2023-03-08T12:31:28.904Z,7.28
2023-03-08T12:34:13.525Z,5.97
2023-03-08T12:36:45.637Z,7.30
2023-03-08T12:39:31.019Z,6.45
2023-03-08T12:42:16.823Z,4.60
2023-03-08T12:44:46.270Z,4.45
2023-03-08T12:47:23.314Z,3.42
2023-03-08T12:49:57.064Z,2.08
2023-03-08T12:52:34.883Z,1.42
2023-03-08T12:55:19.213Z,2.03
2023-03-08T12:57:53.590Z,1.30
2023-03-08T13:00:31.026Z,1.60
2023-03-08T13:03:05.513Z,1.38
2023-03-08T13:05:38.430Z,1.88
2023-03-08T13:08:32.409Z,1.80
2023-03-08T13:11:10.719Z,1.70
2023-03-08T13:13:51.722Z,1.60
2023-03-08T13:16:34.892Z,2.35
2023-03-08T13:19:26.901Z,1.98
2023-03-08T13:22:13.624Z,2.00
2023-03-08T13:24:50.722Z,2.42
2023-03-08T13:27:45.488Z,2.03
2023-03-08T13:30:26.832Z,1.90
2023-03-08T13:32:56.748Z,1.52
2023-03-08T13:35:26.458Z,1.88
2023-03-08T13:37:59.787Z,1.30
2023-03-08T13:40:31.511Z,1.35
2023-03-08T13:43:08.494Z,1.70
2023-03-08T13:45:38.371Z,1.60
2023-03-08T13:48:10.377Z,1.83
2023-03-08T13:50:46.576Z,2.28
2023-03-08T13:53:23.667Z,1.95
2023-03-08T13:55:58.739Z,2.28
2023-03-08T13:58:36.019Z,1.98
2023-03-08T14:01:14.595Z,2.22
2023-03-08T14:03:45.761Z,1.80
2023-03-08T14:06:20.902Z,1.52
2023-03-08T14:08:51.625Z,1.85
2023-03-08T14:11:26.864Z,2.03
2023-03-08T14:14:00.687Z,2.28
2023-03-08T14:16:34.428Z,2.38
2023-03-08T14:19:13.327Z,1.70
2023-03-08T14:21:51.281Z,2.08
2023-03-08T14:24:25.858Z,2.03
2023-03-08T14:27:00.815Z,2.40
2023-03-08T14:29:34.744Z,1.90
2023-03-08T14:32:29.296Z,1.98
2023-03-08T14:35:16.797Z,1.75
2023-03-08T14:37:48.041Z,2.08
2023-03-08T14:40:31.884Z,2.00
2023-03-08T14:43:05.180Z,1.67
2023-03-08T14:45:40.250Z,2.25
2023-03-08T14:48:27.037Z,2.00
2023-03-08T14:50:59.941Z,2.20
2023-03-08T14:53:34.887Z,1.55
2023-03-08T14:56:12.197Z,2.17
2023-03-08T14:58:46.221Z,1.80
2023-03-08T15:01:26.655Z,1.90
2023-03-08T15:03:56.360Z,1.98
2023-03-08T15:06:29.712Z,2.70
2023-03-08T15:09:01.445Z,2.17
2023-03-08T15:11:32.877Z,2.20
2023-03-08T15:14:03.004Z,2.30
2023-03-08T15:16:33.798Z,1.85
2023-03-08T15:19:03.261Z,1.85
2023-03-08T15:21:34.473Z,2.22
2023-03-08T15:24:04.063Z,2.03
2023-03-08T15:26:33.622Z,2.20
2023-03-08T15:29:03.779Z,1.90
2023-03-08T15:31:34.599Z,2.10
2023-03-08T15:34:04.064Z,2.28
2023-03-08T15:36:35.582Z,2.20
2023-03-08T15:39:05.342Z,1.90
2023-03-08T15:41:34.835Z,2.00
2023-03-08T15:44:04.280Z,1.98
2023-03-08T15:46:35.224Z,2.30
2023-03-08T15:49:05.109Z,2.28
2023-03-08T15:51:37.178Z,2.40
2023-03-08T15:54:08.316Z,2.88
2023-03-08T15:56:37.647Z,2.45
2023-03-08T15:59:07.496Z,2.38
2023-03-08T16:01:38.588Z,2.33
2023-03-08T16:04:08.014Z,2.50
2023-03-08T16:06:37.410Z,2.67
2023-03-08T16:09:06.766Z,1.98
2023-03-08T16:11:36.182Z,2.40
2023-03-08T16:14:05.692Z,2.30
2023-03-08T16:16:44.909Z,2.30
2023-03-08T16:19:16.130Z,2.47
2023-03-08T16:21:45.475Z,1.70
2023-03-08T16:24:14.861Z,2.08
2023-03-08T16:26:44.519Z,2.58
2023-03-08T16:29:13.996Z,2.35
2023-03-08T16:31:43.613Z,2.22
2023-03-08T16:34:14.949Z,3.15
2023-03-08T16:36:44.375Z,2.65
2023-03-08T16:39:13.753Z,2.05
2023-03-08T16:41:43.261Z,2.30
2023-03-08T16:44:21.337Z,2.30
2023-03-08T16:46:51.714Z,2.33
2023-03-08T16:49:28.257Z,2.35
2023-03-08T16:51:58.717Z,1.95
2023-03-08T16:54:28.140Z,1.92
2023-03-08T16:56:58.760Z,1.75
2023-03-08T16:59:30.635Z,2.38
2023-03-08T17:02:00.063Z,2.20
2023-03-08T17:04:30.897Z,2.13
2023-03-08T17:07:00.276Z,2.45
2023-03-08T17:09:29.668Z,2.10
2023-03-08T17:11:59.065Z,2.67
2023-03-08T17:14:28.835Z,2.88
2023-03-08T17:16:58.932Z,2.28
2023-03-08T17:19:29.744Z,2.30
2023-03-08T17:21:59.809Z,2.78
2023-03-08T17:24:31.100Z,2.65
2023-03-08T17:27:00.670Z,2.35
2023-03-08T17:29:30.061Z,2.28
2023-03-08T17:31:59.433Z,2.13
2023-03-08T17:34:30.554Z,2.50
2023-03-08T17:36:59.919Z,2.45
2023-03-08T17:39:29.300Z,1.73
2023-03-08T17:41:58.693Z,1.95
2023-03-08T17:44:28.218Z,1.70
2023-03-08T17:46:57.666Z,2.40
2023-03-08T17:49:27.184Z,1.88
2023-03-08T17:51:59.789Z,2.42
2023-03-08T17:54:29.418Z,1.90
2023-03-08T17:56:58.988Z,1.98
2023-03-08T17:59:28.344Z,1.75
2023-03-08T18:01:57.688Z,1.60
2023-03-08T18:04:27.249Z,2.10
2023-03-08T18:06:59.080Z,2.08
2023-03-08T18:09:29.735Z,2.30
2023-03-08T18:11:59.148Z,1.58
2023-03-08T18:14:39.212Z,2.63
2023-03-08T18:17:11.600Z,2.13
2023-03-08T18:19:41.935Z,2.10
2023-03-08T18:22:14.628Z,2.03
2023-03-08T18:24:44.139Z,2.22
2023-03-08T18:27:13.470Z,2.10
2023-03-08T18:29:42.879Z,2.00
2023-03-08T18:32:12.292Z,1.40
2023-03-08T18:34:42.157Z,1.30
2023-03-08T18:37:12.932Z,1.80
2023-03-08T18:39:42.414Z,1.20
2023-03-08T18:42:11.980Z,1.92
2023-03-08T18:44:41.534Z,1.92
2023-03-08T18:47:10.938Z,1.80
2023-03-08T18:49:41.996Z,1.80
2023-03-08T18:52:13.327Z,1.38
2023-03-08T18:54:42.773Z,1.17
2023-03-08T18:57:12.229Z,1.38
2023-03-08T18:59:41.650Z,1.10
2023-03-08T19:02:12.347Z,1.00
2023-03-08T19:04:43.345Z,1.10
2023-03-08T19:07:14.184Z,0.98
2023-03-08T19:09:45.778Z,1.15
2023-03-08T19:12:15.831Z,1.20
2023-03-08T19:14:48.068Z,0.88
2023-03-08T19:17:17.405Z,0.80
2023-03-08T19:19:46.802Z,1.17
2023-03-08T19:22:17.852Z,1.05
2023-03-08T19:24:47.349Z,0.95
2023-03-08T19:27:16.756Z,1.05
2023-03-08T19:29:46.135Z,0.55
2023-03-08T19:32:16.064Z,0.95
2023-03-08T19:34:45.719Z,0.57
2023-03-08T19:37:17.154Z,1.30
2023-03-08T19:39:47.561Z,0.90
2023-03-08T19:42:17.930Z,0.80
2023-03-08T19:44:48.615Z,0.90
2023-03-08T19:47:19.973Z,0.80
2023-03-08T19:49:49.708Z,1.00
2023-03-08T19:52:20.831Z,0.90
2023-03-08T19:54:50.176Z,0.70
2023-03-08T19:57:19.803Z,0.70
2023-03-08T19:59:49.176Z,0.70
2023-03-08T20:02:18.543Z,0.65
2023-03-08T20:04:48.070Z,0.82
2023-03-08T20:07:18.922Z,0.68
2023-03-08T20:09:48.492Z,1.10
2023-03-08T20:12:17.946Z,0.98
2023-03-08T20:14:47.428Z,0.80
2023-03-08T20:17:16.852Z,0.70
2023-03-08T20:19:46.375Z,0.63
2023-03-08T20:22:15.853Z,0.80
2023-03-08T20:24:46.899Z,0.70
2023-03-08T20:27:16.473Z,0.73
2023-03-08T20:29:45.848Z,0.70
2023-03-08T20:32:15.800Z,0.63
2023-03-08T20:34:45.200Z,0.82
2023-03-08T20:37:14.613Z,0.30
2023-03-08T20:39:44.762Z,0.60
2023-03-08T20:42:15.846Z,0.80
2023-03-08T20:44:45.233Z,0.45
2023-03-08T20:47:15.351Z,0.68
2023-03-08T20:49:44.968Z,0.90
2023-03-08T20:52:14.481Z,0.63
2023-03-08T20:54:43.871Z,0.98
2023-03-08T20:57:14.747Z,0.75
2023-03-08T20:59:44.217Z,1.10
2023-03-08T21:02:13.920Z,1.20
2023-03-08T21:04:43.341Z,0.82
2023-03-08T21:07:12.761Z,0.65
2023-03-08T21:09:44.127Z,0.77
2023-03-08T21:12:14.949Z,1.10
2023-03-08T21:14:44.472Z,1.00
2023-03-08T21:17:13.867Z,1.15
2023-03-08T21:19:43.254Z,1.13
2023-03-08T21:22:12.661Z,0.90
2023-03-08T21:24:42.081Z,3.00
2023-03-08T21:27:11.565Z,0.60
2023-03-08T21:29:42.317Z,0.90
2023-03-08T21:32:12.344Z,0.75
2023-03-08T21:34:41.883Z,1.67
2023-03-08T21:37:11.329Z,1.88
2023-03-08T21:39:40.788Z,1.40
2023-03-08T21:42:10.206Z,1.20
2023-03-08T21:44:41.339Z,1.13
2023-03-08T21:47:10.695Z,0.88
2023-03-08T21:49:40.536Z,1.20
2023-03-08T21:52:11.458Z,1.13
2023-03-08T21:54:40.958Z,1.02
2023-03-08T21:57:10.390Z,1.00
2023-03-08T21:59:41.238Z,1.13
2023-03-08T22:02:11.745Z,1.13
2023-03-08T22:04:41.136Z,1.10
2023-03-08T22:07:10.543Z,0.88
2023-03-08T22:09:39.947Z,1.80
2023-03-08T22:12:10.942Z,1.02
2023-03-08T22:14:41.799Z,1.15
2023-03-08T22:17:11.259Z,1.15
2023-03-08T22:19:40.645Z,1.10
2023-03-08T22:22:11.452Z,1.30
2023-03-08T22:24:40.838Z,1.00
2023-03-08T22:27:10.743Z,0.80
2023-03-08T22:29:42.010Z,1.20
2023-03-08T22:32:11.460Z,1.00
2023-03-08T22:34:40.858Z,0.90
2023-03-08T22:37:10.358Z,1.40
2023-03-08T22:39:39.878Z,0.90
2023-03-08T22:42:09.614Z,1.17
2023-03-08T22:44:39.124Z,1.30
2023-03-08T22:47:10.269Z,1.23
2023-03-08T22:49:39.697Z,1.55
2023-03-08T22:52:09.604Z,2.13
2023-03-08T22:54:57.653Z,0.80
2023-03-08T22:57:27.094Z,1.27
2023-03-08T22:59:57.133Z,1.40
2023-03-08T23:02:58.001Z,1.30
2023-03-08T23:05:27.554Z,1.45
2023-03-08T23:07:57.000Z,1.05
2023-03-08T23:10:27.316Z,1.30
2023-03-08T23:12:56.754Z,1.40
2023-03-08T23:15:26.204Z,1.17
2023-03-08T23:17:56.961Z,1.20
2023-03-08T23:20:26.478Z,1.48
2023-03-08T23:22:55.916Z,1.30
2023-03-08T23:25:25.477Z,1.10
2023-03-08T23:27:55.790Z,1.15
2023-03-08T23:30:25.583Z,1.00
2023-03-08T23:32:56.416Z,0.93
2023-03-08T23:35:25.876Z,0.90
2023-03-08T23:37:55.280Z,1.40
2023-03-08T23:40:24.731Z,1.17
2023-03-08T23:42:54.240Z,1.25
2023-03-08T23:45:23.791Z,1.30
2023-03-08T23:47:53.172Z,1.10
2023-03-08T23:50:24.007Z,1.35
2023-03-08T23:52:53.560Z,1.10
2023-03-08T23:55:23.018Z,0.82
2023-03-08T23:57:52.478Z,1.20
